Time;durP1;ratioP1;P1;durP2;ratioP2;P2;SDS_P1;SDS_P2;PMS_P1;PMS_P2;Temp;Humidity;BMP_temperature;BMP_pressure;BME280_temperature;BME280_humidity;BME280_pressure;Samples;Min_cycle;Max_cycle;Signal;HPM_P1;HPM_P2
2022/06/14 00:01:36;;;;;;;5.18;3.03;;;23.40;99.90;;;;;;4861207;29;20060;-82
2022/06/14 00:04:02;;;;;;;10.38;3.45;;;23.50;99.90;;;;;;4861172;29;20026;-82
2022/06/14 00:06:31;;;;;;;9.32;3.20;;;23.50;99.90;;;;;;4860651;29;20028;-82
2022/06/14 00:08:57;;;;;;;7.45;3.72;;;23.40;99.90;;;;;;4868622;29;20129;-82
2022/06/14 00:11:26;;;;;;;9.30;3.17;;;23.40;99.90;;;;;;4859591;29;20037;-82
2022/06/14 00:13:54;;;;;;;10.68;3.28;;;23.40;99.90;;;;;;4861248;29;20051;-82
2022/06/14 00:16:21;;;;;;;7.53;3.30;;;23.30;99.90;;;;;;4866745;29;20461;-82
2022/06/14 00:18:47;;;;;;;7.20;2.92;;;23.40;99.90;;;;;;4878131;29;20029;-82
2022/06/14 00:21:13;;;;;;;8.68;3.17;;;23.30;99.90;;;;;;4879213;29;20017;-82
2022/06/14 00:23:39;;;;;;;9.25;4.07;;;23.30;99.90;;;;;;4863430;29;20542;-82
2022/06/14 00:26:05;;;;;;;7.20;3.70;;;23.30;99.90;;;;;;4861182;29;20029;-82
2022/06/14 00:28:33;;;;;;;10.15;3.45;;;23.20;99.90;;;;;;4861814;29;20057;-82
2022/06/14 00:31:07;;;;;;;9.57;3.50;;;23.20;99.90;;;;;;4860900;29;20029;-82
2022/06/14 00:33:33;;;;;;;13.45;3.67;;;23.10;99.90;;;;;;4867422;29;20561;-82
2022/06/14 00:36:05;;;;;;;8.65;3.60;;;23.10;99.90;;;;;;4871662;29;20030;-82
2022/06/14 00:38:33;;;;;;;5.72;3.00;;;23.10;99.90;;;;;;4860683;29;20032;-82
2022/06/14 00:41:00;;;;;;;6.75;3.30;;;23.10;99.90;;;;;;4860689;29;20031;-82
2022/06/14 00:43:28;;;;;;;8.43;3.95;;;23.10;99.90;;;;;;4860586;29;20038;-82
2022/06/14 00:45:53;;;;;;;11.30;3.55;;;23.10;99.90;;;;;;4860552;29;20041;-82
2022/06/14 00:48:25;;;;;;;9.30;3.22;;;23.10;99.90;;;;;;4859143;29;20432;-82
2022/06/14 00:51:06;;;;;;;11.48;3.30;;;23.00;99.90;;;;;;4867423;29;20393;-82
2022/06/14 00:53:40;;;;;;;7.47;3.45;;;23.00;99.90;;;;;;4878785;29;20029;-82
2022/06/14 00:56:28;;;;;;;6.45;3.33;;;23.00;99.90;;;;;;4879172;29;20029;-82
2022/06/14 00:59:17;;;;;;;7.18;3.35;;;23.00;99.90;;;;;;4878944;29;20029;-81
2022/06/14 01:01:43;;;;;;;8.98;2.88;;;22.90;99.90;;;;;;4870009;29;20048;-82
2022/06/14 01:04:15;;;;;;;8.55;3.47;;;23.00;99.90;;;;;;4878888;29;20039;-81
2022/06/14 01:06:46;;;;;;;6.88;3.03;;;22.90;99.90;;;;;;4873897;29;20078;-82
2022/06/14 01:09:40;;;;;;;7.88;3.75;;;22.90;99.90;;;;;;4860320;29;20522;-82
2022/06/14 01:12:13;;;;;;;8.48;3.25;;;22.80;99.90;;;;;;4860277;29;20038;-82
2022/06/14 01:14:47;;;;;;;8.85;3.42;;;22.70;99.90;;;;;;4860205;29;20029;-82
2022/06/14 01:17:14;;;;;;;8.82;3.47;;;22.80;99.90;;;;;;4860402;29;20081;-82
2022/06/14 01:19:42;;;;;;;9.00;3.15;;;22.70;99.90;;;;;;4877249;29;20029;-82
2022/06/14 01:22:08;;;;;;;10.05;3.35;;;22.80;99.90;;;;;;4869333;29;20032;-82
2022/06/14 01:24:36;;;;;;;8.52;3.65;;;22.70;99.90;;;;;;4878698;29;20037;-82
2022/06/14 01:27:08;;;;;;;7.18;3.13;;;22.80;99.90;;;;;;4877271;29;20025;-82
2022/06/14 01:29:36;;;;;;;8.93;3.10;;;22.70;99.90;;;;;;4878832;29;20037;-82
2022/06/14 01:32:06;;;;;;;7.05;3.65;;;22.70;99.90;;;;;;4878788;29;20033;-82
2022/06/14 01:34:35;;;;;;;7.55;3.80;;;22.70;99.90;;;;;;4882271;29;20033;-82
2022/06/14 01:37:01;;;;;;;5.72;3.35;;;22.70;99.90;;;;;;4880934;29;20017;-82
2022/06/14 01:39:28;;;;;;;8.25;3.75;;;22.60;99.90;;;;;;4882082;29;20070;-82
2022/06/14 01:42:32;;;;;;;15.90;3.80;;;22.60;99.90;;;;;;4880802;29;20036;-82
2022/06/14 01:45:14;;;;;;;6.93;3.80;;;22.60;99.90;;;;;;4843210;29;20038;-82
2022/06/14 01:47:50;;;;;;;7.30;3.35;;;22.50;99.90;;;;;;4842419;29;20046;-82
2022/06/14 01:53:12;;;;;;;7.50;3.65;;;22.50;99.90;;;;;;4842705;29;20070;-82
2022/06/14 01:55:43;;;;;;;7.47;3.53;;;22.50;99.90;;;;;;4824747;29;20030;-82
2022/06/14 01:58:26;;;;;;;5.03;3.30;;;22.40;99.90;;;;;;4842487;29;20030;-82
2022/06/14 02:01:00;;;;;;;9.05;3.53;;;22.50;99.90;;;;;;4824122;29;20038;-81
2022/06/14 02:07:04;;;;;;;8.80;3.95;;;22.40;99.90;;;;;;4824405;29;20052;-82
2022/06/14 02:09:41;;;;;;;4.68;3.22;;;22.40;99.90;;;;;;4780722;29;20535;-81
2022/06/14 02:12:11;;;;;;;9.45;4.25;;;22.40;99.90;;;;;;4787874;29;20044;-82
2022/06/14 02:14:47;;;;;;;8.00;3.80;;;22.30;99.90;;;;;;4787969;29;20062;-82
2022/06/14 02:17:22;;;;;;;10.52;3.90;;;22.40;99.90;;;;;;4788049;29;20062;-82
2022/06/14 02:20:08;;;;;;;8.23;3.60;;;22.30;99.90;;;;;;4834608;29;20182;-81
2022/06/14 02:22:53;;;;;;;6.65;3.65;;;22.20;99.90;;;;;;4842653;29;20037;-82
2022/06/14 02:25:47;;;;;;;6.93;3.60;;;22.20;99.90;;;;;;4840045;29;20034;-82
2022/06/14 02:28:29;;;;;;;9.27;3.78;;;22.20;99.90;;;;;;4842010;29;20042;-81
2022/06/14 02:31:00;;;;;;;8.63;3.70;;;22.20;99.90;;;;;;4841935;29;20037;-82
2022/06/14 02:33:36;;;;;;;8.95;3.85;;;22.20;99.90;;;;;;4842357;29;20046;-82
2022/06/14 02:36:27;;;;;;;11.35;4.43;;;22.20;99.90;;;;;;4842077;29;20042;-82
2022/06/14 02:39:02;;;;;;;13.20;4.45;;;22.10;99.90;;;;;;4841155;29;20038;-82
2022/06/14 02:41:31;;;;;;;8.70;4.10;;;22.10;99.90;;;;;;4841763;29;20500;-82
2022/06/14 02:44:11;;;;;;;6.75;3.90;;;22.00;99.90;;;;;;4841208;29;20038;-82
2022/06/14 02:46:52;;;;;;;13.70;4.63;;;22.00;99.90;;;;;;4853421;29;20439;-82
2022/06/14 02:49:38;;;;;;;8.27;4.68;;;22.00;99.90;;;;;;4863394;29;20393;-82
2022/06/14 02:52:12;;;;;;;8.40;4.03;;;22.00;99.90;;;;;;4881006;29;20033;-82
2022/06/14 02:54:44;;;;;;;9.75;4.60;;;22.00;99.90;;;;;;4881168;29;20032;-82
2022/06/14 02:57:38;;;;;;;7.22;4.18;;;21.90;99.90;;;;;;4881003;29;20030;-82
2022/06/14 03:00:07;;;;;;;8.32;4.18;;;21.80;99.90;;;;;;4866715;29;20025;-82
2022/06/14 03:03:01;;;;;;;9.10;3.85;;;21.80;99.90;;;;;;4862277;29;20033;-82
2022/06/14 03:05:41;;;;;;;7.00;3.78;;;21.90;99.90;;;;;;4871392;29;20047;-82
2022/06/14 03:08:16;;;;;;;8.85;4.25;;;22.00;99.90;;;;;;4880700;29;20080;-82
2022/06/14 03:11:13;;;;;;;6.07;3.50;;;21.80;99.90;;;;;;4874309;29;20068;-82
2022/06/14 03:13:57;;;;;;;10.82;5.10;;;21.80;99.90;;;;;;4879527;29;20044;-82
2022/06/14 03:16:41;;;;;;;14.75;4.65;;;21.70;99.90;;;;;;4880729;29;20480;-82
2022/06/14 03:19:34;;;;;;;10.23;4.07;;;21.60;99.90;;;;;;4876776;29;20131;-82
2022/06/14 03:22:10;;;;;;;7.22;4.68;;;21.40;99.90;;;;;;4863588;29;20042;-82
2022/06/14 03:25:00;;;;;;;11.32;5.15;;;21.30;99.90;;;;;;4875468;29;20123;-82
2022/06/14 03:27:35;;;;;;;12.40;5.60;;;21.20;99.90;;;;;;4871393;29;20113;-82
2022/06/14 03:30:20;;;;;;;10.98;5.07;;;21.10;99.90;;;;;;4861392;29;20057;-82
2022/06/14 03:32:58;;;;;;;9.27;4.88;;;21.00;99.90;;;;;;4870071;29;20040;-82
2022/06/14 03:35:30;;;;;;;10.07;5.57;;;20.90;99.90;;;;;;4879074;29;20048;-82
2022/06/14 03:38:00;;;;;;;10.48;5.00;;;21.00;99.90;;;;;;4861627;29;20026;-81
2022/06/14 03:40:25;;;;;;;9.63;4.88;;;21.00;99.90;;;;;;4861861;29;20033;-82
2022/06/14 03:42:52;;;;;;;8.52;5.22;;;21.00;99.90;;;;;;4870981;29;20037;-82
2022/06/14 03:45:23;;;;;;;8.27;4.72;;;21.10;99.90;;;;;;4880096;29;20060;-82
2022/06/14 03:47:49;;;;;;;10.48;4.93;;;21.10;99.90;;;;;;4878947;29;20037;-82
2022/06/14 03:50:23;;;;;;;11.68;4.72;;;21.20;99.90;;;;;;4871285;29;20554;-82
2022/06/14 03:53:26;;;;;;;12.25;4.85;;;21.10;99.90;;;;;;4861517;29;20025;-82
2022/06/14 03:56:36;;;;;;;8.82;5.22;;;21.10;99.90;;;;;;4861284;29;20026;-82
2022/06/14 03:59:23;;;;;;;18.83;4.60;;;21.10;99.90;;;;;;4866581;29;20053;-82
2022/06/14 04:01:57;;;;;;;14.60;5.50;;;21.10;99.90;;;;;;4880017;29;20102;-82
2022/06/14 04:04:33;;;;;;;7.82;4.65;;;21.10;99.90;;;;;;4879619;29;20076;-81
2022/06/14 04:07:13;;;;;;;9.32;5.43;;;21.00;99.90;;;;;;4879699;29;20029;-81
2022/06/14 04:09:50;;;;;;;7.32;4.90;;;20.90;99.90;;;;;;4868452;29;20088;-81
2022/06/14 04:12:41;;;;;;;9.55;4.72;;;21.00;99.90;;;;;;4863121;29;20037;-81
2022/06/14 04:15:52;;;;;;;9.10;5.03;;;21.00;99.90;;;;;;4862710;29;20528;-82
2022/06/14 04:18:40;;;;;;;9.40;4.43;;;21.00;99.90;;;;;;4789735;29;20523;-82
2022/06/14 04:21:26;;;;;;;10.68;5.13;;;21.20;99.90;;;;;;4788163;29;20031;-83
2022/06/14 04:23:57;;;;;;;12.38;4.30;;;21.20;99.90;;;;;;4797653;29;20043;-82
2022/06/14 04:26:37;;;;;;;11.15;4.85;;;21.30;99.90;;;;;;4796472;29;20042;-82
2022/06/14 04:29:14;;;;;;;10.27;4.88;;;21.30;99.90;;;;;;4795581;29;20043;-81
2022/06/14 04:31:49;;;;;;;10.77;4.88;;;21.20;99.90;;;;;;4802631;29;20123;-81
2022/06/14 04:34:26;;;;;;;10.57;4.88;;;21.20;99.90;;;;;;4803898;29;20038;-80
2022/06/14 04:36:58;;;;;;;8.57;4.53;;;21.30;99.90;;;;;;4804028;29;20522;-82
2022/06/14 04:39:29;;;;;;;10.70;4.50;;;21.30;99.90;;;;;;4803327;29;20038;-80
2022/06/14 04:42:01;;;;;;;11.68;4.93;;;21.30;99.90;;;;;;4803537;29;20047;-76
2022/06/14 04:44:47;;;;;;;16.40;4.20;;;21.30;99.90;;;;;;4802969;29;20050;-81
2022/06/14 04:47:28;;;;;;;9.35;4.07;;;21.40;99.90;;;;;;4793769;29;20035;-80
2022/06/14 04:49:59;;;;;;;10.53;3.93;;;21.40;99.90;;;;;;4803254;29;20046;-80
2022/06/14 04:52:32;;;;;;;9.05;3.50;;;21.50;99.90;;;;;;4803251;29;20153;-80
2022/06/14 04:55:09;;;;;;;8.73;3.40;;;21.50;99.90;;;;;;4830822;29;20068;-79
2022/06/14 04:58:01;;;;;;;9.40;3.75;;;21.70;99.90;;;;;;4860171;29;20033;-80
2022/06/14 05:00:39;;;;;;;6.15;3.10;;;21.60;99.90;;;;;;4877065;29;20485;-80
2022/06/14 05:03:20;;;;;;;11.13;3.35;;;21.60;99.90;;;;;;4878811;29;20033;-80
2022/06/14 05:06:01;;;;;;;12.15;3.63;;;21.60;99.90;;;;;;4879184;29;20048;-81
2022/06/14 05:08:44;;;;;;;10.80;3.72;;;21.70;99.90;;;;;;4874145;29;20069;-80
2022/06/14 05:11:09;;;;;;;10.10;2.95;;;21.70;99.90;;;;;;4861119;29;20054;-80
2022/06/14 05:14:12;;;;;;;10.63;3.20;;;21.80;99.90;;;;;;4870876;29;20444;-80
2022/06/14 14:26:29;;;;;;;11.98;2.90;;;34.80;46.90;;;;;;4994126;24;20113;-79
2022/06/14 14:29:03;;;;;;;14.63;3.10;;;35.10;48.40;;;;;;4881305;29;20065;-79
2022/06/14 14:32:04;;;;;;;13.65;3.08;;;35.40;49.40;;;;;;4881177;29;20491;-79
2022/06/14 14:34:39;;;;;;;14.38;3.25;;;35.50;48.00;;;;;;4864305;29;20040;-79
2022/06/14 14:37:08;;;;;;;11.85;2.90;;;35.30;46.60;;;;;;4879447;29;20500;-79
2022/06/14 14:40:03;;;;;;;8.55;2.75;;;35.00;46.60;;;;;;4880227;29;20021;-79
2022/06/14 14:42:29;;;;;;;10.05;3.30;;;35.10;48.10;;;;;;4881616;29;20089;-79
2022/06/14 14:44:59;;;;;;;10.25;2.97;;;35.20;46.80;;;;;;4881298;29;20041;-79
2022/06/14 14:47:36;;;;;;;11.38;3.05;;;35.20;47.30;;;;;;4881528;29;20421;-79
2022/06/14 14:50:05;;;;;;;7.10;2.40;;;35.20;47.00;;;;;;4864249;29;20089;-78
2022/06/14 14:52:47;;;;;;;6.28;2.72;;;35.00;48.90;;;;;;4877146;29;20423;-77
2022/06/14 14:55:44;;;;;;;7.38;2.67;;;34.90;48.20;;;;;;4880183;29;20389;-79
2022/06/14 14:58:31;;;;;;;11.32;2.85;;;35.20;47.00;;;;;;4881130;29;20590;-79
2022/06/14 15:07:25;;;;;;;10.88;2.78;;;34.50;48.00;;;;;;4787643;30;20503;-79
2022/06/14 15:09:59;;;;;;;7.80;2.65;;;34.60;48.90;;;;;;4787070;30;20130;-79
2022/06/14 15:12:29;;;;;;;8.35;2.50;;;34.80;49.40;;;;;;4772446;30;20039;-80
2022/06/14 15:15:26;;;;;;;10.80;2.80;;;34.70;48.00;;;;;;4787264;30;20531;-80
2022/06/14 15:20:51;;;;;;;8.00;3.25;;;34.40;48.10;;;;;;4786902;30;20042;-79
2022/06/14 15:23:28;;;;;;;10.07;2.75;;;34.60;48.80;;;;;;4787895;29;20036;-79
2022/06/14 15:25:54;;;;;;;8.40;3.10;;;34.70;49.00;;;;;;4791802;29;20168;-79
2022/06/14 15:28:21;;;;;;;9.65;2.42;;;34.60;48.60;;;;;;4795644;29;20031;-79
2022/06/14 15:30:53;;;;;;;8.57;3.40;;;34.40;48.30;;;;;;4787234;30;20051;-79
2022/06/14 15:33:24;;;;;;;7.22;3.00;;;34.30;48.20;;;;;;4793541;29;20027;-81
2022/06/14 15:35:56;;;;;;;9.32;2.90;;;34.10;47.90;;;;;;4795511;29;20039;-79
2022/06/14 15:38:32;;;;;;;14.73;3.45;;;34.10;48.40;;;;;;4785374;30;20424;-79
2022/06/14 15:41:13;;;;;;;9.32;2.55;;;34.20;48.50;;;;;;4798129;29;20588;-79
2022/06/14 15:43:39;;;;;;;6.27;3.20;;;34.40;48.80;;;;;;4819608;29;20093;-79
2022/06/14 15:46:13;;;;;;;10.82;2.50;;;34.20;47.90;;;;;;4841883;29;20696;-79
2022/06/14 15:48:39;;;;;;;11.10;2.72;;;34.00;48.20;;;;;;4854328;29;20040;-79
2022/06/14 15:51:09;;;;;;;7.68;3.03;;;34.00;48.20;;;;;;4861236;29;20025;-79
2022/06/14 15:53:41;;;;;;;8.43;3.03;;;33.90;48.00;;;;;;4861414;29;20486;-79
2022/06/14 15:56:27;;;;;;;7.78;3.95;;;33.80;48.30;;;;;;4843754;29;20036;-78
2022/06/14 15:59:21;;;;;;;19.92;6.25;;;33.80;48.90;;;;;;4842816;29;20550;-79
2022/06/14 16:01:47;;;;;;;15.07;9.48;;;33.70;48.70;;;;;;4857761;29;20166;-79
2022/06/14 16:04:21;;;;;;;23.63;13.05;;;33.60;48.40;;;;;;4852591;29;20530;-79
2022/06/14 16:07:06;;;;;;;21.52;12.90;;;33.60;48.80;;;;;;4848507;29;20030;-79
2022/06/14 16:09:37;;;;;;;24.90;15.82;;;33.60;49.80;;;;;;4851422;29;20109;-79
2022/06/14 16:12:23;;;;;;;;;;;33.60;49.20;;;;;;4853882;29;20159;-79
2022/06/14 16:14:52;;;;;;;25.88;14.05;;;33.40;48.80;;;;;;4834624;29;20421;-79
2022/06/14 16:17:37;;;;;;;23.75;15.07;;;33.50;49.50;;;;;;4839539;29;20078;-78
2022/06/14 16:20:12;;;;;;;32.88;15.82;;;33.40;49.00;;;;;;4830326;29;20039;-79
2022/06/14 16:22:37;;;;;;;25.85;15.18;;;33.40;49.50;;;;;;4822492;29;20039;-79
2022/06/14 16:25:06;;;;;;;27.15;15.10;;;33.30;49.00;;;;;;4835066;29;20052;-79
2022/06/14 16:28:07;;;;;;;21.20;13.90;;;33.30;49.90;;;;;;4825126;29;20058;-80
2022/06/14 16:30:43;;;;;;;25.70;11.05;;;33.20;51.00;;;;;;4841491;29;20141;-80
2022/06/14 16:33:22;;;;;;;16.85;8.25;;;33.30;50.20;;;;;;4829017;29;20060;-79
2022/06/14 16:35:55;;;;;;;15.00;7.32;;;33.40;49.70;;;;;;4823664;29;20033;-77
2022/06/14 16:38:34;;;;;;;22.23;7.53;;;33.40;49.70;;;;;;4840118;29;20045;-75
2022/06/14 16:41:37;;;;;;;15.15;6.95;;;33.40;50.60;;;;;;4839571;29;20029;-76
2022/06/14 16:44:23;;;;;;;9.27;5.28;;;33.40;50.10;;;;;;4802599;29;20095;-76
2022/06/14 16:47:15;;;;;;;11.20;4.68;;;33.20;49.40;;;;;;4812327;29;20514;-76
2022/06/14 16:50:13;;;;;;;9.07;4.10;;;32.90;49.30;;;;;;4790901;29;20043;-76
2022/06/14 16:52:54;;;;;;;10.43;3.25;;;32.80;49.50;;;;;;4821211;29;20038;-79
2022/06/14 16:55:20;;;;;;;8.25;3.22;;;32.60;48.50;;;;;;4830565;29;20121;-79
2022/06/14 16:57:54;;;;;;;7.13;3.17;;;32.50;49.70;;;;;;4831968;29;20113;-79
2022/06/14 17:00:27;;;;;;;11.43;3.58;;;32.50;49.30;;;;;;4810446;29;20035;-79
2022/06/14 17:03:28;;;;;;;9.65;3.65;;;32.50;49.50;;;;;;4819034;29;20026;-79
2022/06/14 17:06:26;;;;;;;10.80;3.42;;;32.40;50.20;;;;;;4828675;29;20499;-79
2022/06/14 17:08:59;;;;;;;10.35;2.70;;;32.50;50.30;;;;;;4817748;29;20038;-79
2022/06/14 17:11:54;;;;;;;15.20;2.90;;;32.40;49.70;;;;;;4823724;29;20845;-78
2022/06/14 17:14:47;;;;;;;8.40;2.40;;;32.40;50.10;;;;;;4801582;29;20100;-78
2022/06/14 17:17:39;;;;;;;8.95;2.33;;;32.20;49.40;;;;;;4802420;29;20046;-78
2022/06/14 17:20:18;;;;;;;6.95;2.40;;;32.10;48.80;;;;;;4796135;29;20043;-77
2022/06/14 17:22:49;;;;;;;7.30;2.47;;;32.00;48.70;;;;;;4801561;29;20035;-79
2022/06/14 17:31:14;;;;;;;7.90;2.80;;;32.20;49.20;;;;;;4807467;29;20089;-79
2022/06/14 17:33:47;;;;;;;8.95;4.03;;;32.10;49.00;;;;;;4806147;29;20077;-78
2022/06/14 17:36:25;;;;;;;14.35;5.07;;;32.00;48.90;;;;;;4806840;29;20080;-78
2022/06/14 17:38:56;;;;;;;9.13;4.00;;;31.70;49.00;;;;;;4803075;29;20050;-79
2022/06/14 17:41:32;;;;;;;11.93;4.22;;;31.60;49.90;;;;;;4802819;29;20178;-79
2022/06/14 17:44:05;;;;;;;5.35;2.53;;;31.50;49.20;;;;;;4807495;29;20034;-79
2022/06/14 17:46:35;;;;;;;8.73;2.50;;;31.40;49.20;;;;;;4806995;29;20080;-78
2022/06/14 17:49:28;;;;;;;5.85;2.13;;;31.40;48.90;;;;;;4802876;29;20053;-78
2022/06/14 17:52:14;;;;;;;7.00;2.38;;;31.30;49.40;;;;;;4839691;29;20046;-79
2022/06/14 17:54:50;;;;;;;7.40;2.08;;;31.00;49.70;;;;;;4850042;29;20030;-78
2022/06/14 17:57:39;;;;;;;6.90;2.08;;;30.80;49.60;;;;;;4864382;29;20029;-78
2022/06/14 18:00:40;;;;;;;9.25;2.13;;;30.70;50.00;;;;;;4849197;29;20042;-78
2022/06/14 18:03:10;;;;;;;9.60;2.25;;;30.50;49.70;;;;;;4852987;29;20113;-77
2022/06/14 18:05:56;;;;;;;9.68;3.15;;;30.50;49.70;;;;;;4860110;29;20042;-77
2022/06/14 18:08:51;;;;;;;10.20;2.60;;;30.50;49.70;;;;;;4846528;29;20117;-77
2022/06/14 18:11:17;;;;;;;9.30;2.53;;;30.40;49.30;;;;;;4850718;29;20478;-80
2022/06/14 18:14:30;;;;;;;10.38;2.63;;;30.40;49.80;;;;;;4849646;29;20034;-79
2022/06/14 18:16:57;;;;;;;7.18;1.90;;;30.30;49.70;;;;;;4853740;29;20042;-84
2022/06/14 18:22:34;;;;;;;10.35;2.00;;;30.30;50.20;;;;;;4848533;29;20113;-78
2022/06/14 18:25:12;;;;;;;16.75;2.17;;;30.30;51.00;;;;;;4852022;29;20194;-76
2022/06/14 18:27:58;;;;;;;9.40;2.55;;;30.20;49.60;;;;;;4844403;29;20117;-76
2022/06/14 18:30:43;;;;;;;8.57;2.20;;;30.20;50.00;;;;;;4850978;29;20038;-76
2022/06/14 18:33:24;;;;;;;12.45;3.33;;;30.20;51.30;;;;;;4846553;29;20048;-77
2022/06/14 18:35:56;;;;;;;7.20;2.60;;;30.20;51.70;;;;;;4851582;29;20029;-76
2022/06/14 18:38:41;;;;;;;9.38;1.95;;;30.00;50.90;;;;;;4842427;29;20022;-77
2022/06/14 18:41:31;;;;;;;9.57;2.47;;;29.80;52.00;;;;;;4850716;29;20078;-77
2022/06/14 18:44:09;;;;;;;14.10;2.78;;;29.90;52.80;;;;;;4843951;29;20533;-76
2022/06/14 18:46:49;;;;;;;7.57;2.22;;;29.80;51.60;;;;;;4846428;29;20140;-76
2022/06/14 18:49:40;;;;;;;6.78;2.20;;;29.80;51.30;;;;;;4851507;29;20040;-78
2022/06/14 18:52:12;;;;;;;11.35;2.55;;;29.70;51.70;;;;;;4830375;29;20101;-76
2022/06/14 18:54:56;;;;;;;6.45;1.75;;;29.50;51.60;;;;;;4850410;29;20018;-76
2022/06/14 18:57:27;;;;;;;5.40;2.00;;;29.40;52.00;;;;;;4852446;29;20065;-76
2022/06/14 18:59:53;;;;;;;8.17;1.80;;;29.30;51.60;;;;;;4848243;29;20026;-76
2022/06/14 19:02:33;;;;;;;5.38;1.70;;;29.30;51.50;;;;;;4841724;29;20045;-76
2022/06/14 19:05:11;;;;;;;14.40;2.70;;;29.30;51.80;;;;;;4853211;29;20497;-76
2022/06/14 19:07:48;;;;;;;9.20;2.78;;;29.30;52.10;;;;;;4849035;29;20026;-76
2022/06/14 19:10:23;;;;;;;6.07;1.95;;;29.20;51.20;;;;;;4845928;29;20025;-77
2022/06/14 19:12:58;;;;;;;7.65;1.80;;;29.10;51.30;;;;;;4848964;29;20036;-77
2022/06/14 19:15:33;;;;;;;6.00;2.40;;;29.00;50.90;;;;;;4842054;29;20383;-76
2022/06/14 19:18:28;;;;;;;7.68;1.85;;;28.90;50.90;;;;;;4840287;29;20025;-76
2022/06/14 19:21:05;;;;;;;6.75;1.83;;;28.70;51.10;;;;;;4852958;29;20486;-76
2022/06/14 19:24:10;;;;;;;4.60;1.90;;;28.60;51.40;;;;;;4844165;29;20029;-76
2022/06/14 19:27:20;;;;;;;3.80;1.83;;;28.60;51.60;;;;;;4853195;29;20152;-76
2022/06/14 19:29:56;;;;;;;5.03;1.98;;;28.50;51.90;;;;;;4822456;29;20522;-76
2022/06/14 19:32:51;;;;;;;7.32;1.80;;;28.50;52.10;;;;;;4851197;29;20478;-76
2022/06/14 19:35:33;;;;;;;4.85;1.58;;;28.40;52.40;;;;;;4842076;29;20029;-77
2022/06/14 19:38:04;;;;;;;;;;;28.30;52.70;;;;;;4855346;29;20494;-75
2022/06/14 19:40:43;;;;;;;4.10;1.50;;;28.10;53.50;;;;;;4843186;29;20688;-76
2022/06/14 19:43:20;;;;;;;6.20;1.67;;;28.00;53.50;;;;;;4848264;29;20037;-76
2022/06/14 19:46:02;;;;;;;8.02;1.88;;;27.80;52.70;;;;;;4841583;29;20033;-79
2022/06/14 19:51:16;;;;;;;5.63;1.38;;;27.70;52.40;;;;;;4849200;29;20558;-77
2022/06/14 19:53:42;;;;;;;7.60;1.65;;;27.60;52.50;;;;;;4852721;29;20379;-78
2022/06/14 19:56:09;;;;;;;4.25;1.83;;;27.40;52.50;;;;;;4841739;29;20033;-76
2022/06/14 19:58:43;;;;;;;5.78;2.00;;;27.40;52.50;;;;;;4845832;29;20372;-76
2022/06/14 20:01:26;;;;;;;6.90;1.73;;;27.40;52.20;;;;;;4850070;29;20057;-76
2022/06/14 20:03:54;;;;;;;6.10;2.15;;;27.40;52.10;;;;;;4850843;29;20030;-76
2022/06/14 20:06:28;;;;;;;7.50;1.83;;;27.40;52.00;;;;;;4850601;29;20112;-76
2022/06/14 20:08:56;;;;;;;8.27;1.83;;;27.40;52.00;;;;;;4847099;29;20112;-75
2022/06/14 20:11:29;;;;;;;14.30;1.90;;;27.20;52.10;;;;;;4850492;29;20033;-75
2022/06/14 20:13:56;;;;;;;7.75;1.77;;;27.10;52.00;;;;;;4850051;29;20021;-75
2022/06/14 20:16:26;;;;;;;7.72;1.88;;;27.20;51.90;;;;;;4850754;29;20022;-76
2022/06/14 20:19:30;;;;;;;2.20;1.30;;;27.20;51.90;;;;;;4848915;29;20068;-76
2022/06/14 20:22:05;;;;;;;8.80;1.67;;;27.20;51.60;;;;;;4851033;29;20021;-75
2022/06/14 20:24:32;;;;;;;9.70;1.98;;;27.10;51.80;;;;;;4851501;29;20025;-76
2022/06/14 20:27:04;;;;;;;4.00;1.60;;;27.00;52.10;;;;;;4848726;29;20026;-76
2022/06/14 20:29:29;;;;;;;7.38;2.20;;;26.90;52.10;;;;;;4850007;29;20037;-76
2022/06/14 20:32:00;;;;;;;10.35;1.70;;;26.90;52.40;;;;;;4851417;29;20026;-76
2022/06/14 20:34:28;;;;;;;4.75;1.35;;;26.90;52.50;;;;;;4850233;29;20056;-76
2022/06/14 20:37:06;;;;;;;4.65;1.58;;;26.90;52.30;;;;;;4850109;29;20018;-76
2022/06/14 20:39:33;;;;;;;3.97;1.70;;;27.00;52.70;;;;;;4849114;29;20083;-76
2022/06/14 20:42:11;;;;;;;7.35;1.80;;;26.80;52.50;;;;;;4854266;29;20021;-76
2022/06/14 20:44:42;;;;;;;4.75;2.00;;;26.70;52.80;;;;;;4851539;29;20126;-75
2022/06/14 20:47:09;;;;;;;10.65;2.28;;;26.70;52.70;;;;;;4850418;29;20073;-75
2022/06/14 20:49:44;;;;;;;3.72;1.55;;;26.70;53.10;;;;;;4850152;29;20271;-76
2022/06/14 20:52:11;;;;;;;5.88;2.20;;;26.70;53.00;;;;;;4849084;29;20626;-75
2022/06/14 20:54:50;;;;;;;6.07;1.80;;;26.60;53.90;;;;;;4849521;29;20058;-76
2022/06/14 20:57:21;;;;;;;7.00;1.80;;;26.70;53.30;;;;;;4843729;29;20022;-76
2022/06/14 20:59:48;;;;;;;6.97;2.22;;;26.60;53.50;;;;;;4841164;29;20026;-76
2022/06/14 21:02:15;;;;;;;10.43;1.83;;;26.70;53.70;;;;;;4841609;29;20030;-75
2022/06/14 21:04:45;;;;;;;6.78;2.00;;;26.70;53.70;;;;;;4841100;29;20077;-76
2022/06/14 21:07:13;;;;;;;4.55;1.85;;;26.60;53.90;;;;;;4841041;29;20097;-76
2022/06/14 21:09:49;;;;;;;6.43;2.63;;;26.60;54.00;;;;;;4845917;29;20033;-76
2022/06/14 21:12:17;;;;;;;5.13;1.90;;;26.60;54.10;;;;;;4858324;29;20047;-75
2022/06/14 21:14:46;;;;;;;8.75;1.80;;;26.60;54.20;;;;;;4853835;29;20041;-75
2022/06/14 21:17:19;;;;;;;7.22;1.80;;;26.60;54.20;;;;;;4841268;29;20612;-76
2022/06/14 21:19:45;;;;;;;5.32;2.03;;;26.60;54.50;;;;;;4850359;29;20395;-77
2022/06/14 21:22:15;;;;;;;7.20;1.85;;;26.60;54.70;;;;;;4852388;29;20490;-76
2022/06/14 21:24:49;;;;;;;5.03;2.28;;;26.60;54.90;;;;;;4859411;29;20046;-76
2022/06/14 21:27:19;;;;;;;7.07;1.80;;;26.50;54.80;;;;;;4843946;29;20098;-76
2022/06/14 21:29:54;;;;;;;7.07;1.98;;;26.40;54.90;;;;;;4841452;29;20327;-75
2022/06/14 21:32:40;;;;;;;6.32;2.08;;;26.40;55.10;;;;;;4858151;29;20029;-76
2022/06/14 21:35:07;;;;;;;5.07;1.88;;;26.40;55.30;;;;;;4841083;29;20026;-76
2022/06/14 21:37:37;;;;;;;5.72;1.73;;;26.30;55.40;;;;;;4840736;29;20034;-75
2022/06/14 21:40:21;;;;;;;6.50;2.30;;;26.30;55.70;;;;;;4841228;29;20147;-75
2022/06/14 21:42:47;;;;;;;5.90;2.13;;;26.20;55.80;;;;;;4859115;29;20072;-75
2022/06/14 21:45:22;;;;;;;6.10;1.90;;;26.20;56.00;;;;;;4840810;29;20038;-75
2022/06/14 21:47:49;;;;;;;4.53;1.65;;;26.20;56.10;;;;;;4840700;29;20140;-75
2022/06/14 21:50:15;;;;;;;4.78;1.75;;;26.10;56.20;;;;;;4843306;29;20113;-76
2022/06/14 21:52:40;;;;;;;4.07;2.10;;;26.10;56.30;;;;;;4843694;29;20229;-76
2022/06/14 21:55:12;;;;;;;8.35;1.92;;;26.10;56.40;;;;;;4844734;29;20043;-76
2022/06/14 21:57:47;;;;;;;8.70;1.92;;;26.00;56.50;;;;;;4844548;29;20030;-75
2022/06/14 22:00:38;;;;;;;4.80;1.80;;;26.00;56.70;;;;;;4844569;29;20507;-76
2022/06/14 22:03:47;;;;;;;7.72;2.10;;;25.90;56.70;;;;;;4844270;29;20537;-75
2022/06/14 22:06:13;;;;;;;4.47;2.13;;;25.90;56.70;;;;;;4843661;29;20094;-76
2022/06/14 22:08:38;;;;;;;5.88;1.85;;;25.90;56.80;;;;;;4844071;29;20510;-75
2022/06/14 22:11:06;;;;;;;8.68;1.65;;;25.90;56.90;;;;;;4846013;29;20053;-75
2022/06/14 22:13:40;;;;;;;5.97;2.03;;;25.80;57.00;;;;;;4862588;29;20032;-75
2022/06/14 22:16:15;;;;;;;6.53;2.22;;;25.80;56.70;;;;;;4855198;29;20038;-76
2022/06/14 22:18:40;;;;;;;6.20;1.73;;;25.70;56.60;;;;;;4853194;29;20041;-75
2022/06/14 22:21:06;;;;;;;6.38;1.90;;;25.70;56.70;;;;;;4860890;29;20033;-75
2022/06/14 22:24:38;;;;;;;3.30;1.63;;;25.70;56.40;;;;;;4844061;29;20026;-75
2022/06/14 22:26:22;;;;;;;10.32;1.90;;;25.60;56.60;;;;;;4843943;29;20072;-75
2022/06/14 22:28:49;;;;;;;5.13;1.65;;;25.60;56.40;;;;;;4843672;29;20131;-75
2022/06/14 22:31:15;;;;;;;7.82;1.92;;;25.60;56.30;;;;;;4843404;29;20045;-75
2022/06/14 22:33:41;;;;;;;7.53;2.03;;;25.50;56.20;;;;;;4843857;29;20603;-75
2022/06/14 22:36:09;;;;;;;5.20;1.88;;;25.60;56.70;;;;;;4844905;29;20147;-75
2022/06/14 22:38:39;;;;;;;9.68;1.98;;;25.60;56.10;;;;;;4862247;29;20028;-75
2022/06/14 22:41:06;;;;;;;7.80;2.10;;;25.50;56.40;;;;;;4862011;29;20549;-75
2022/06/14 22:43:31;;;;;;;7.85;1.85;;;25.50;56.40;;;;;;4862399;29;20057;-75
2022/06/14 22:45:57;;;;;;;8.32;1.60;;;25.50;56.50;;;;;;4861491;29;20065;-75
2022/06/14 22:48:23;;;;;;;6.78;2.33;;;25.50;56.70;;;;;;4862022;29;20468;-75
2022/06/14 22:50:48;;;;;;;19.60;2.80;;;25.50;56.70;;;;;;4861094;29;20537;-75
2022/06/14 22:53:15;;;;;;;9.68;1.90;;;25.50;56.90;;;;;;4861804;29;20040;-74
2022/06/14 22:55:43;;;;;;;8.13;2.53;;;25.40;57.00;;;;;;4849218;29;20091;-75
2022/06/14 22:58:22;;;;;;;10.10;2.08;;;25.40;57.10;;;;;;4843412;29;20010;-75
2022/06/14 23:00:48;;;;;;;8.68;1.90;;;25.40;57.20;;;;;;4842482;29;20505;-75
2022/06/14 23:03:14;;;;;;;3.90;2.08;;;25.40;57.50;;;;;;4842799;29;20033;-75
2022/06/14 23:05:40;;;;;;;7.15;2.45;;;25.40;57.50;;;;;;4843063;29;20489;-75
2022/06/14 23:08:06;;;;;;;9.73;2.13;;;25.40;57.60;;;;;;4843251;29;20037;-75